Terminal Aerodrome Forecast
Issued by NWS Springfield, MO

Home | Current Version | Previous Version | Text Only | Print | Product List | Glossary On
Versions: 1 2 3 4 5 6 7 8 9 10 11 12 13 14 15 16 17 18
000
FTUS43 KSGF 251100 AAA
TAFSGF
TAF AMD
KSGF 251115Z 2511/2606 18014KT P6SM VCSH SCT009 WS020/21045KT
     FM251500 24017G25KT P6SM SCT050
     FM251900 27020G28KT P6SM FEW050
     FM260000 31010KT P6SM SKC=

USA.gov is the U.S. government's official web portal to all federal, state and local government web resources and services.